Hg 306 Tobis — OUPS — position and weather

sailwx.info

Track history (hours):
 
Tides and Currents Weather Stations Pressure Air Temp Water Temp Dewpoint Dewpoint Depression Visibility Wind Speed Wind Dir Waves Ship Positions

Hg 306 Tobis

Last reported at 2017-Apr-17 14:30 UTC. Time now 2017-Apr-23 23:28 UTC.
Position N 58°43' E 004°44'.

Length 40 m; draft 6.4 m.

Type: Fishing. MMSI: 219013001.

Date/timePositionNaut miles runAvg speedWind from/ knotsBaromVisibWave heightAir tempDewpointWater temp
2017-Apr-17 14:30N 58°43' E 004°44'9 8.8
2017-Apr-17 13:30N 58°38' E 004°58'4 9.1
2017-Apr-17 13:00N 58°35' E 005°05'5 9.3
2017-Apr-17 12:29N 58°32' E 005°12'13 9.5
2017-Apr-17 11:07N 58°24' E 005°31'3 9.3
2017-Apr-17 10:47N 58°22' E 005°36'4 9.5
2017-Apr-17 10:20N 58°19' E 005°42'12 9.7
2017-Apr-17 09:06N 58°12' E 006°00'110.1
2017-Apr-17 09:00N 58°11' E 006°02'510.5
2017-Apr-17 08:29N 58°08' E 006°10'510.7
2017-Apr-17 08:00N 58°04' E 006°17'510.4
2017-Apr-17 07:30N 58°01' E 006°25'510.2
2017-Apr-17 07:00N 57°58' E 006°32'510.0
2017-Apr-17 06:30N 57°55' E 006°40'510.4
2017-Apr-17 06:00N 57°53' E 006°49'510.9
2017-Apr-17 05:30N 57°51' E 006°58'97 3.1
2017-Apr-15 22:03N 57°36' E 009°58'0 0.0
2017-Apr-15 21:54N 57°36' E 009°58'0 0.0
2017-Apr-15 21:30N 57°36' E 009°58'0 0.0
2017-Apr-15 21:00N 57°36' E 009°58'0 0.0
2017-Apr-15 20:29N 57°36' E 009°58'0 0.0
2017-Apr-15 19:58N 57°36' E 009°58'0 0.0
2017-Apr-14 23:11N 57°36' E 009°58'  
2017-Apr-12 04:57N 57°36' E 009°58'0 0.0
2017-Apr-12 04:29N 57°36' E 009°58'0 0.0
2017-Apr-12 03:59N 57°36' E 009°58'0 0.0
2017-Apr-12 03:30N 57°36' E 009°58'0 0.0
2017-Apr-12 02:56N 57°36' E 009°58'0 0.0
2017-Apr-11 13:55N 57°36' E 009°58'0 0.0
2017-Apr-11 13:30N 57°36' E 009°58'0 0.0
2017-Apr-11 12:59N 57°36' E 009°58'  
Track history (hours):
 
Tides and Currents Weather Stations Pressure Air Temp Water Temp Dewpoint Dewpoint Depression Visibility Wind Speed Wind Dir Waves Ship Positions

Hg 306 Tobis

Last reported at 2017-Apr-17 14:30 UTC. Time now 2017-Apr-23 23:28 UTC.
Position N 58°43' E 004°44'.

Length 40 m; draft 6.4 m.

Type: Fishing. MMSI: 219013001.

Date/timePositionNaut miles runAvg speedWind from/ knotsBaromVisibWave heightAir tempDewpointWater temp
2017-Apr-17 14:30N 58°43' E 004°44'9 8.8
2017-Apr-17 13:30N 58°38' E 004°58'4 9.1
2017-Apr-17 13:00N 58°35' E 005°05'5 9.3
2017-Apr-17 12:29N 58°32' E 005°12'13 9.5
2017-Apr-17 11:07N 58°24' E 005°31'3 9.3
2017-Apr-17 10:47N 58°22' E 005°36'4 9.5
2017-Apr-17 10:20N 58°19' E 005°42'12 9.7
2017-Apr-17 09:06N 58°12' E 006°00'110.1
2017-Apr-17 09:00N 58°11' E 006°02'510.5
2017-Apr-17 08:29N 58°08' E 006°10'510.7
2017-Apr-17 08:00N 58°04' E 006°17'510.4
2017-Apr-17 07:30N 58°01' E 006°25'510.2
2017-Apr-17 07:00N 57°58' E 006°32'510.0
2017-Apr-17 06:30N 57°55' E 006°40'510.4
2017-Apr-17 06:00N 57°53' E 006°49'510.9
2017-Apr-17 05:30N 57°51' E 006°58'97 3.1
2017-Apr-15 22:03N 57°36' E 009°58'0 0.0
2017-Apr-15 21:54N 57°36' E 009°58'0 0.0
2017-Apr-15 21:30N 57°36' E 009°58'0 0.0
2017-Apr-15 21:00N 57°36' E 009°58'0 0.0
2017-Apr-15 20:29N 57°36' E 009°58'0 0.0
2017-Apr-15 19:58N 57°36' E 009°58'0 0.0
2017-Apr-14 23:11N 57°36' E 009°58'  
2017-Apr-12 04:57N 57°36' E 009°58'0 0.0
2017-Apr-12 04:29N 57°36' E 009°58'0 0.0
2017-Apr-12 03:59N 57°36' E 009°58'0 0.0
2017-Apr-12 03:30N 57°36' E 009°58'0 0.0
2017-Apr-12 02:56N 57°36' E 009°58'0 0.0
2017-Apr-11 13:55N 57°36' E 009°58'0 0.0
2017-Apr-11 13:30N 57°36' E 009°58'0 0.0
2017-Apr-11 12:59N 57°36' E 009°58'  

Dump ship's entire track history